Ahmadi, Kuwait

11:14 PM AST on August 29, 2016 (GMT +0300)
Abdulaziz Bin Abdulrahman Al Saud Expressway | | Change Station

Elev 19 ft 29.20 °N, 48.11 °E | Updated 8 minutes ago

Clear
Clear
97.5 °F
Feels Like 97 °F
N
0.6
Wind Variable Wind from East
Gusts 2.5 mph

Today
High -- | Low -- °F
--% Chance of Precip.
Yesterday
High -- | Low -- °F
Precip. -- in
Pressure 29.62 in
Visibility -9999.0 miles
Clouds
Heat Index 97 °F
Dew Point 59 °F
Humidity 27%
Rainfall 0.00 in
Snow Depth Not available.
5:23 AM 6:12 PM
Waning Crescent, 7% visible
METAR OKBK 292000Z 16006KT CAVOK 33/13 Q1003 NOSIG
Pressure 29.62 in
Visibility -9999.0 miles
Clouds
Heat Index 97 °F
Dew Point 59 °F
Humidity 27%
Rainfall 0.00 in
Snow Depth Not available.
5:23 AM 6:12 PM
Waning Crescent, 7% visible
METAR OKBK 292000Z 16006KT CAVOK 33/13 Q1003 NOSIG

10-Day Weather Forecast

No radar image for this location.
×

Almanac

Astronomy

Aug. 29, 2016 Rise Set
Actual Time
Civil Twilight
Nautical Twilight
Astronomical Twilight
Moon
Length of Visible Light
Length of Day
Tomorrow will be .
, % of the Moon is Illuminated

Today's Extremes

Country Highs Country Lows

Community

WunderPhotos

Upload Photos

1,935,647 photos uploaded!

WunderBlog® & News

Nearby

Air Quality

  Air Quality AQ Index Pollutant
Not available.

Snow Depth

Station Depth Elevation

Earthquake Activity

City Distance Mag. Time & Date
Minimum magnitude displayed is 2.5.

Coastal Water Temperatures

Place Temperature

Stations

Nearby Weather Stations

Station Location Temp. Windchill Dew Point Humidity Wind Precip. Elev Updated Type